createdAt,value
2018-07-12T00:03:32.192Z,101332.84
2018-07-12T00:08:33.416Z,101334.52
2018-07-12T00:13:34.669Z,101323.74
2018-07-12T00:18:35.900Z,101314.31
2018-07-12T00:23:37.107Z,101310.00
2018-07-12T00:28:38.363Z,101303.11
2018-07-12T00:33:39.598Z,101303.12
2018-07-12T00:38:40.859Z,101306.88
2018-07-12T00:43:42.150Z,101307.16
2018-07-12T00:48:43.394Z,101302.94
2018-07-12T00:53:44.647Z,101305.09
2018-07-12T00:58:45.865Z,101302.05
2018-07-12T01:03:47.139Z,101301.39
2018-07-12T01:08:48.361Z,101305.89
2018-07-12T01:13:49.708Z,101305.50
2018-07-12T01:18:50.916Z,101305.72
2018-07-12T01:23:52.160Z,101304.08
2018-07-12T01:28:53.406Z,101299.30
2018-07-12T01:33:55.066Z,101296.23
2018-07-12T01:38:56.300Z,101289.69
2018-07-12T01:43:57.545Z,101300.67
2018-07-12T01:48:58.728Z,101303.61
2018-07-12T01:53:59.991Z,101295.55
2018-07-12T01:59:01.222Z,101289.41
2018-07-12T02:04:02.434Z,101289.87
2018-07-12T02:09:04.171Z,101294.86
2018-07-12T02:14:05.409Z,101296.44
2018-07-12T02:19:06.641Z,101296.36
2018-07-12T02:24:07.851Z,101291.23
2018-07-12T02:29:09.096Z,101289.46
2018-07-12T02:34:10.361Z,101289.17
2018-07-12T02:39:11.568Z,101287.43
2018-07-12T02:44:12.807Z,101287.81
2018-07-12T02:49:14.357Z,101291.63
2018-07-12T02:54:15.588Z,101278.75
2018-07-12T02:59:16.827Z,101281.21
2018-07-12T03:04:18.070Z,101274.52
2018-07-12T03:09:19.317Z,101279.16
2018-07-12T03:14:20.557Z,101281.78
2018-07-12T03:19:21.754Z,101281.41
2018-07-12T03:24:23.001Z,101283.45
2018-07-12T03:29:24.221Z,101282.21
2018-07-12T03:34:25.463Z,101289.92
2018-07-12T03:39:26.697Z,101287.27
2018-07-12T03:44:27.956Z,101298.27
2018-07-12T03:49:29.199Z,101299.84
2018-07-12T03:54:30.462Z,101302.01
2018-07-12T03:59:31.704Z,101296.52
2018-07-12T04:04:32.929Z,101294.86
2018-07-12T04:09:34.159Z,101293.36
2018-07-12T04:14:35.391Z,101297.33
2018-07-12T04:19:36.609Z,101303.11
2018-07-12T04:24:37.855Z,101298.11
2018-07-12T04:29:39.071Z,101289.28
2018-07-12T04:34:40.352Z,101289.86
2018-07-12T04:39:41.594Z,101285.42
2018-07-12T04:44:42.833Z,101276.63
2018-07-12T04:49:44.069Z,101268.36
2018-07-12T04:54:45.300Z,101274.51
2018-07-12T04:59:46.564Z,101278.11
2018-07-12T05:04:47.792Z,101286.01
2018-07-12T05:09:49.029Z,101287.53
2018-07-12T05:14:50.233Z,101294.95
2018-07-12T05:19:51.452Z,101289.27
2018-07-12T05:24:52.681Z,101300.52
2018-07-12T05:29:53.895Z,101293.89
2018-07-12T05:34:55.189Z,101310.72
2018-07-12T05:39:57.355Z,101309.57
2018-07-12T05:44:59.536Z,101311.87
2018-07-12T05:50:01.681Z,101306.48
2018-07-12T05:55:03.903Z,101312.16
2018-07-12T06:00:06.088Z,101316.05
2018-07-12T06:05:08.250Z,101311.02
2018-07-12T06:10:10.399Z,101307.25
2018-07-12T06:15:12.537Z,101304.34
2018-07-12T06:20:14.740Z,101310.00
2018-07-12T06:25:16.970Z,101316.96
2018-07-12T06:30:19.145Z,101318.30
2018-07-12T06:35:21.308Z,101329.94
2018-07-12T06:40:23.463Z,101328.28
2018-07-12T06:45:26.374Z,101334.72
2018-07-12T06:50:28.545Z,101327.53
2018-07-12T06:55:30.766Z,101331.41
2018-07-12T07:00:32.982Z,101334.02
2018-07-12T07:05:35.160Z,101326.73
2018-07-12T07:10:37.398Z,101325.03
2018-07-12T07:15:39.565Z,101329.33
2018-07-12T07:20:41.771Z,101323.77
2018-07-12T07:25:44.061Z,101326.38
2018-07-12T07:30:46.226Z,101324.28
2018-07-12T07:35:48.436Z,101325.56
2018-07-12T07:40:51.122Z,101327.67
2018-07-12T07:45:53.302Z,101327.19
2018-07-12T07:50:55.481Z,101325.03
2018-07-12T07:55:57.994Z,101327.23
2018-07-12T08:01:00.433Z,101324.69
2018-07-12T08:06:02.649Z,101321.22
2018-07-12T08:11:04.854Z,101313.45
2018-07-12T08:16:07.037Z,101310.88
2018-07-12T08:21:12.562Z,101309.99
2018-07-12T08:26:14.787Z,101316.38
2018-07-12T08:31:16.976Z,101311.57
2018-07-12T08:36:19.176Z,101299.48
2018-07-12T08:41:21.401Z,101303.73
2018-07-12T08:46:23.630Z,101304.67
2018-07-12T08:51:25.830Z,101292.15
2018-07-12T08:56:28.105Z,101290.83
2018-07-12T09:01:30.296Z,101290.24
2018-07-12T09:06:32.475Z,101288.25
2018-07-12T09:11:34.959Z,101304.30
2018-07-12T09:16:37.159Z,101308.85
2018-07-12T09:21:39.423Z,101304.91
2018-07-12T09:26:41.608Z,101306.98
2018-07-12T09:31:43.801Z,101301.98
2018-07-12T09:36:46.183Z,101298.88
2018-07-12T09:41:48.381Z,101293.59
2018-07-12T09:46:50.559Z,101301.82
2018-07-12T09:51:52.713Z,101294.39
2018-07-12T09:57:06.544Z,101295.55
2018-07-12T10:02:14.571Z,101292.80
2018-07-12T10:07:22.450Z,101302.66
2018-07-12T10:12:32.044Z,101299.45
2018-07-12T10:17:40.207Z,101289.88
2018-07-12T10:22:42.390Z,101292.03
2018-07-12T10:27:44.609Z,101285.72
2018-07-12T10:32:46.784Z,101284.98
2018-07-12T10:37:48.962Z,101282.67
2018-07-12T10:42:51.167Z,101290.97
2018-07-12T10:47:53.333Z,101289.37
2018-07-12T10:52:55.525Z,101290.16
2018-07-12T10:57:57.935Z,101298.27
2018-07-12T11:03:00.135Z,101288.19
2018-07-12T11:08:02.311Z,101291.25
2018-07-12T11:13:11.655Z,101291.02
2018-07-12T11:18:13.917Z,101283.92
2018-07-12T11:23:16.131Z,101279.31
2018-07-12T11:28:18.334Z,101283.34
2018-07-12T11:33:40.212Z,101281.02
2018-07-12T11:38:43.367Z,101280.59
2018-07-12T11:43:45.566Z,101272.91
2018-07-12T11:48:47.789Z,101266.47
2018-07-12T11:53:49.947Z,101268.30
2018-07-12T11:58:52.192Z,101262.81
2018-07-12T12:03:54.402Z,101261.48
2018-07-12T12:08:56.620Z,101265.64
2018-07-12T12:13:58.777Z,101259.19
2018-07-12T12:19:00.980Z,101265.95
2018-07-12T12:24:03.169Z,101253.73
2018-07-12T12:29:05.347Z,101259.25
2018-07-12T12:34:07.557Z,101265.13
2018-07-12T12:39:09.759Z,101251.29
2018-07-12T12:44:11.965Z,101243.89
2018-07-12T12:49:14.179Z,101247.31
2018-07-12T12:54:16.391Z,101244.39
2018-07-12T12:59:18.583Z,101243.22
2018-07-12T13:04:20.768Z,101243.22
2018-07-12T13:09:22.963Z,101242.50
2018-07-12T13:14:25.189Z,101243.13
2018-07-12T13:19:27.346Z,101245.42
2018-07-12T13:24:29.540Z,101235.20
2018-07-12T13:29:31.706Z,101245.27
2018-07-12T13:34:33.872Z,101227.93
2018-07-12T13:39:36.101Z,101218.12
2018-07-12T13:44:38.253Z,101221.64
2018-07-12T13:49:40.679Z,101221.69
2018-07-12T13:54:42.830Z,101219.14
2018-07-12T13:59:45.047Z,101216.45
2018-07-12T14:04:47.316Z,101239.70
2018-07-12T14:09:49.553Z,101231.44
2018-07-12T14:14:51.749Z,101224.70
2018-07-12T14:19:53.926Z,101221.88
2018-07-12T14:24:56.227Z,101223.68
2018-07-12T14:29:58.465Z,101228.30
2018-07-12T14:35:00.676Z,101227.02
2018-07-12T14:40:02.886Z,101234.25
2018-07-12T14:45:05.086Z,101223.58
2018-07-12T14:50:07.295Z,101224.77
2018-07-12T14:55:09.491Z,101218.12
2018-07-12T15:00:11.710Z,101212.97
2018-07-12T15:05:13.887Z,101220.79
2018-07-12T15:10:16.121Z,101221.07
2018-07-12T15:15:18.303Z,101211.66
2018-07-12T15:20:20.487Z,101212.45
2018-07-12T15:25:22.636Z,101212.42
2018-07-12T15:30:25.064Z,101207.22
2018-07-12T15:35:27.304Z,101212.18
2018-07-12T15:40:29.482Z,101207.44
2018-07-12T15:45:31.654Z,101205.79
2018-07-12T15:50:33.857Z,101211.08
2018-07-12T15:55:36.050Z,101210.00
2018-07-12T16:00:38.295Z,101217.60
2018-07-12T16:05:40.439Z,101208.64
2018-07-12T16:10:42.652Z,101214.20
2018-07-12T16:15:44.868Z,101216.02
2018-07-12T16:20:47.071Z,101217.05
2018-07-12T16:25:50.148Z,101212.45
2018-07-12T16:30:52.323Z,101220.55
2018-07-12T16:35:54.542Z,101217.87
2018-07-12T16:40:56.750Z,101218.90
2018-07-12T16:45:58.934Z,101223.23
2018-07-12T16:51:01.126Z,101221.59
2018-07-12T16:56:03.355Z,101218.70
2018-07-12T17:01:05.587Z,101218.71
2018-07-12T17:06:07.818Z,101223.84
2018-07-12T17:11:10.029Z,101225.02
2018-07-12T17:16:12.232Z,101220.35
2018-07-12T17:21:14.448Z,101233.03
2018-07-12T17:26:16.626Z,101232.03
2018-07-12T17:31:18.812Z,101233.16
2018-07-12T17:36:20.995Z,101244.52
2018-07-12T17:41:23.230Z,101242.44
2018-07-12T17:46:25.416Z,101249.37
2018-07-12T17:51:27.687Z,101261.23
2018-07-12T17:56:29.906Z,101265.24
2018-07-12T18:01:32.350Z,101259.98
2018-07-12T18:06:34.572Z,101259.70
2018-07-12T18:11:36.816Z,101270.27
2018-07-12T18:16:38.999Z,101264.63
2018-07-12T18:21:41.217Z,101271.01
2018-07-12T18:26:43.460Z,101274.66
2018-07-12T18:31:45.661Z,101282.94
2018-07-12T18:36:48.028Z,101284.06
2018-07-12T18:41:50.228Z,101288.30
2018-07-12T18:46:52.905Z,101301.27
2018-07-12T18:51:55.327Z,101303.68
2018-07-12T18:56:57.547Z,101302.91
2018-07-12T19:01:59.887Z,101308.77
2018-07-12T19:07:02.175Z,101318.92
2018-07-12T19:12:04.513Z,101320.71
2018-07-12T19:17:06.823Z,101317.78
2018-07-12T19:22:09.131Z,101335.01
2018-07-12T19:27:11.317Z,101340.22
2018-07-12T19:32:13.828Z,101354.89
2018-07-12T19:37:16.113Z,101353.34
2018-07-12T19:42:18.384Z,101367.48
2018-07-12T19:47:20.723Z,101367.95
2018-07-12T19:52:22.995Z,101381.69
2018-07-12T19:57:25.173Z,101383.84
2018-07-12T20:02:27.484Z,101379.58
2018-07-12T20:07:29.801Z,101379.13
2018-07-12T20:12:32.030Z,101388.12
2018-07-12T20:17:34.373Z,101391.50
2018-07-12T20:22:36.615Z,101391.06
2018-07-12T20:27:38.845Z,101396.63
2018-07-12T20:32:41.589Z,101400.45
2018-07-12T20:37:43.857Z,101402.14
2018-07-12T20:42:46.045Z,101403.84
2018-07-12T20:47:48.307Z,101411.03
2018-07-12T20:52:50.539Z,101406.68
2018-07-12T20:57:52.711Z,101420.72
2018-07-12T21:02:55.010Z,101423.08
2018-07-12T21:07:57.192Z,101430.28
2018-07-12T21:12:59.436Z,101426.80
2018-07-12T21:18:01.645Z,101438.54
2018-07-12T21:23:04.028Z,101445.68
2018-07-12T21:28:06.296Z,101443.06
2018-07-12T21:33:08.917Z,101446.31
2018-07-12T21:38:11.117Z,101445.20
2018-07-12T21:43:13.282Z,101445.55
2018-07-12T21:48:15.470Z,101448.77
2018-07-12T21:53:17.620Z,101451.66
2018-07-12T21:58:19.848Z,101457.17
2018-07-12T22:03:22.329Z,101449.27
2018-07-12T22:08:25.814Z,101445.18
2018-07-12T22:13:29.548Z,101450.47
2018-07-12T22:18:31.806Z,101450.35
2018-07-12T22:23:34.073Z,101449.06
2018-07-12T22:28:36.243Z,101450.34
2018-07-12T22:33:38.414Z,101461.15
2018-07-12T22:38:40.589Z,101451.89
2018-07-12T22:43:42.790Z,101448.61
2018-07-12T22:48:44.968Z,101453.66
2018-07-12T22:53:47.134Z,101448.58
2018-07-12T22:58:49.607Z,101449.52
2018-07-12T23:03:51.913Z,101444.55
2018-07-12T23:08:54.099Z,101449.26
2018-07-12T23:13:56.496Z,101450.72
2018-07-12T23:18:58.690Z,101440.95
2018-07-12T23:24:00.875Z,101440.92
2018-07-12T23:29:03.123Z,101443.11
2018-07-12T23:34:05.311Z,101445.72
2018-07-12T23:39:08.132Z,101441.73
2018-07-12T23:44:10.364Z,101435.41
2018-07-12T23:49:12.487Z,101423.11
2018-07-12T23:54:14.711Z,101432.09
2018-07-12T23:59:17.079Z,101432.84
